Flight Number: AVA1135 Duration: 3:15
Departure: Tenerife Los Rodeos (GCXO) at 23:45 Distance: 1186.26 Nm
Arrival: Barcelona airport (LEBL) at 03:00 Equipment: A321

Weather Information
Tenerife / Los Rodeos, Spain (GCXO) 28-28N 016-19W 617M May 30, 2020 - 03:30 AM EDT / 2020.05.30 0730 UTC
Wind: from the NW (310 degrees) at 13 MPH (11 KT):0
Visibility: greater than 7 mile(s):0
Sky conditions: mostly cloudy Temperature: 60 F (16 C) Dew Point: 57 F (14 C) Relative Humidity: 87% Pressure (altimeter): 29.97 in. Hg (1015 hPa)
ob: GCXO 300730Z 31011KT 9999 FEW002 SCT010 BKN020 16/14 Q1015 NOSIG cycle: 7
Sunrise: 06:11 Sunset: 19:54 (UTC)

Barcelona / Aeropuerto, Spain (LEBL) 41-17N 002-04E 6M May 30, 2020 - 03:30 AM EDT / 2020.05.30 0730 UTC
Wind: from the NW (320 degrees) at 5 MPH (4 KT):0
Visibility: greater than 7 mile(s):0
Sky conditions: mostly clear Temperature: 68 F (20 C) Dew Point: 60 F (16 C) Relative Humidity: 77% Pressure (altimeter): 30.03 in. Hg (1017 hPa)
ob: LEBL 300730Z 32004KT 9999 FEW025 20/16 Q1017 NOSIG cycle: 7
Sunrise: 04:24 Sunset: 19:13 (UTC)

TAF:2020/05/30 06:27 TAF LEBL 300500Z 3006/3106 33007KT 9999 SCT020 TX24/3012Z TN18/3006Z BECMG 3006/3008 11010KT PROB40 TEMPO 3007/3012 BKN014 BECMG 3016/3018 18005KT BECMG 3021/3023 34007KT

This route has never been flown.

Route map